createdAt,value
2023-01-26T00:05:48.303Z,43.66
2023-01-26T00:15:53.496Z,44.08
2023-01-26T00:25:58.993Z,44.24
2023-01-26T00:36:04.529Z,44.41
2023-01-26T00:46:10.139Z,44.12
2023-01-26T00:56:15.480Z,43.87
2023-01-26T01:06:20.382Z,43.79
2023-01-26T01:16:26.209Z,43.80
2023-01-26T01:26:31.498Z,43.75
2023-01-26T01:36:36.752Z,43.74
2023-01-26T01:46:41.718Z,43.74
2023-01-26T01:56:47.097Z,43.73
2023-01-26T02:06:52.293Z,43.68
2023-01-26T02:16:57.540Z,43.72
2023-01-26T02:27:02.699Z,43.63
2023-01-26T02:37:09.191Z,43.65
2023-01-26T02:47:14.494Z,43.68
2023-01-26T02:57:19.870Z,43.65
2023-01-26T03:07:25.338Z,43.72
2023-01-26T03:17:30.693Z,43.70
2023-01-26T03:27:36.049Z,43.71
2023-01-26T03:37:41.320Z,43.79
2023-01-26T03:47:46.537Z,43.77
2023-01-26T03:57:51.599Z,43.81
2023-01-26T04:07:57.297Z,43.82
2023-01-26T04:18:02.432Z,43.84
2023-01-26T04:28:07.807Z,43.85
2023-01-26T04:38:12.604Z,43.86
2023-01-26T04:48:17.998Z,43.82
2023-01-26T04:58:23.334Z,43.82
2023-01-26T05:08:28.675Z,43.85
2023-01-26T05:18:33.908Z,43.87
2023-01-26T05:28:39.444Z,43.89
2023-01-26T05:38:44.745Z,43.91
2023-01-26T05:48:50.500Z,43.95
2023-01-26T05:58:55.439Z,43.95
2023-01-26T06:09:00.635Z,43.97
2023-01-26T06:19:05.931Z,43.99
2023-01-26T06:30:34.612Z,44.02
2023-01-26T06:40:38.972Z,43.94
2023-01-26T06:50:44.231Z,43.93
2023-01-26T07:00:49.667Z,43.91
2023-01-26T07:10:54.803Z,43.96
2023-01-26T07:21:00.400Z,43.96
2023-01-26T07:31:05.951Z,43.99
2023-01-26T07:41:10.856Z,44.00
2023-01-26T07:51:16.522Z,44.00
2023-01-26T08:01:22.180Z,44.03
2023-01-26T08:11:27.888Z,44.08
2023-01-26T08:21:32.896Z,44.10
2023-01-26T08:31:38.258Z,44.07
2023-01-26T08:41:43.454Z,44.06
2023-01-26T08:51:49.223Z,44.04
2023-01-26T09:01:54.363Z,44.18
2023-01-26T09:11:59.627Z,44.19
2023-01-26T09:22:05.049Z,44.17
2023-01-26T09:32:10.557Z,44.35
2023-01-26T09:42:15.860Z,44.33
2023-01-26T09:52:20.888Z,44.33
2023-01-26T10:02:26.468Z,44.33
2023-01-26T10:12:32.139Z,44.31
2023-01-26T10:22:37.482Z,44.29
2023-01-26T10:32:43.075Z,44.28
2023-01-26T10:42:48.450Z,44.25
2023-01-26T10:52:53.715Z,44.24
2023-01-26T11:03:01.595Z,44.24
2023-01-26T11:13:06.930Z,44.23
2023-01-26T11:23:12.227Z,44.21
2023-01-26T11:33:17.944Z,44.21
2023-01-26T11:43:23.267Z,44.20
2023-01-26T11:53:28.274Z,44.19
2023-01-26T12:03:33.589Z,44.18
2023-01-26T12:13:38.977Z,44.16
2023-01-26T12:23:44.561Z,44.16
2023-01-26T12:33:50.049Z,44.15
2023-01-26T12:43:55.197Z,44.13
2023-01-26T12:54:00.713Z,44.12
2023-01-26T13:04:06.701Z,44.11
2023-01-26T13:14:11.997Z,44.12
2023-01-26T13:24:17.750Z,44.10
2023-01-26T13:34:23.340Z,44.09
2023-01-26T13:44:28.684Z,44.09
2023-01-26T13:54:34.429Z,44.06
2023-01-26T14:04:39.722Z,44.05
2023-01-26T14:14:45.399Z,44.04
2023-01-26T14:24:50.553Z,44.03
2023-01-26T14:34:56.096Z,44.00
2023-01-26T14:45:01.354Z,43.99
2023-01-26T14:55:07.013Z,44.01
2023-01-26T15:05:12.427Z,44.00
2023-01-26T15:15:17.599Z,43.99
2023-01-26T15:25:22.843Z,43.96
2023-01-26T15:35:28.541Z,43.95
2023-01-26T15:45:33.832Z,43.92
2023-01-26T15:55:39.116Z,43.91
2023-01-26T16:05:44.221Z,43.89
2023-01-26T16:15:50.138Z,43.87
2023-01-26T16:25:55.673Z,43.83
2023-01-26T16:36:00.654Z,43.85
2023-01-26T16:46:06.273Z,43.83
2023-01-26T16:56:11.674Z,43.82
2023-01-26T17:06:17.106Z,43.82
2023-01-26T17:16:22.492Z,43.83
2023-01-26T17:26:27.650Z,43.81
2023-01-26T17:36:32.878Z,43.78
2023-01-26T17:46:38.311Z,43.79
2023-01-26T17:56:43.023Z,43.77
2023-01-26T18:06:48.090Z,43.77
2023-01-26T18:16:53.480Z,43.69
2023-01-26T18:26:58.658Z,43.71
2023-01-26T18:37:04.127Z,43.70
2023-01-26T18:47:09.363Z,43.37
2023-01-26T18:57:14.446Z,43.66
2023-01-26T19:07:19.685Z,43.74
2023-01-26T19:17:24.852Z,43.79
2023-01-26T19:27:30.129Z,43.81
2023-01-26T19:37:35.178Z,43.78
2023-01-26T19:47:40.679Z,43.80
2023-01-26T19:57:46.174Z,43.76
2023-01-26T20:07:51.608Z,43.64
2023-01-26T20:17:56.943Z,43.51
2023-01-26T20:28:02.327Z,43.50
2023-01-26T20:38:07.721Z,43.59
2023-01-26T20:48:12.903Z,43.62
2023-01-26T20:58:18.286Z,43.47
2023-01-26T21:08:23.502Z,43.35
2023-01-26T21:18:28.779Z,43.29
2023-01-26T21:28:33.931Z,43.25
2023-01-26T21:38:39.118Z,43.23
2023-01-26T21:48:44.792Z,43.13
2023-01-26T21:58:50.024Z,43.10
2023-01-26T22:08:55.308Z,43.15
2023-01-26T22:19:00.205Z,43.08
2023-01-26T22:29:05.162Z,43.13
2023-01-26T22:39:10.269Z,43.09
2023-01-26T22:49:15.593Z,43.07
2023-01-26T22:59:20.593Z,43.01
2023-01-26T23:09:26.020Z,42.99
2023-01-26T23:19:31.349Z,42.92
2023-01-26T23:29:36.685Z,43.02
2023-01-26T23:39:42.048Z,43.04
2023-01-26T23:49:47.329Z,43.02
2023-01-26T23:59:52.554Z,43.02
